Time;durP1;ratioP1;P1;durP2;ratioP2;P2;SDS_P1;SDS_P2;PMS_P1;PMS_P2;Temp;Humidity;BMP_temperature;BMP_pressure;BME280_temperature;BME280_humidity;BME280_pressure;Samples;Min_cycle;Max_cycle;Signal;HPM_P1;HPM_P2
2022/07/12 00:01:54;;;;;;;6.40;3.65;;;16.20;99.90;;;;;;5029733;28;20033;-63
2022/07/12 00:04:20;;;;;;;4.50;3.80;;;16.10;99.90;;;;;;5048504;28;20068;-63
2022/07/12 00:06:46;;;;;;;4.22;3.45;;;16.10;99.90;;;;;;5048090;28;20029;-63
2022/07/12 00:09:12;;;;;;;5.05;3.67;;;16.10;99.90;;;;;;5046457;28;20066;-64
2022/07/12 00:11:37;;;;;;;4.57;3.50;;;16.10;99.90;;;;;;5043951;28;20433;-64
2022/07/12 00:14:04;;;;;;;4.93;3.45;;;16.10;99.90;;;;;;5030767;28;20048;-64
2022/07/12 00:16:30;;;;;;;5.40;3.60;;;16.10;99.90;;;;;;5052769;28;20037;-63
2022/07/12 00:18:56;;;;;;;4.85;3.50;;;16.10;99.90;;;;;;5044460;28;20033;-63
2022/07/12 00:21:21;;;;;;;4.40;3.40;;;16.00;99.90;;;;;;5029092;28;20033;-64
2022/07/12 00:23:47;;;;;;;4.43;3.50;;;16.00;99.90;;;;;;5044671;28;20463;-63
2022/07/12 00:26:13;;;;;;;6.00;3.95;;;16.00;99.90;;;;;;5021234;28;20494;-64
2022/07/12 00:28:38;;;;;;;6.53;3.72;;;15.90;99.90;;;;;;5050046;28;20033;-63
2022/07/12 00:31:04;;;;;;;5.78;3.85;;;15.90;99.90;;;;;;5046745;28;20048;-64
2022/07/12 00:33:30;;;;;;;4.93;3.75;;;15.90;99.90;;;;;;5048747;28;20033;-64
2022/07/12 00:35:56;;;;;;;5.40;3.83;;;15.80;99.90;;;;;;5030351;28;20372;-64
2022/07/12 00:38:22;;;;;;;7.07;4.30;;;15.80;99.90;;;;;;5046075;28;20116;-64
2022/07/12 00:40:47;;;;;;;5.88;4.00;;;15.70;99.90;;;;;;5029909;28;20033;-64
2022/07/12 00:43:13;;;;;;;5.30;3.30;;;15.70;99.90;;;;;;5033128;28;20032;-64
2022/07/12 00:45:39;;;;;;;6.93;4.00;;;15.70;99.90;;;;;;5046875;28;20033;-64
2022/07/12 00:48:05;;;;;;;5.28;3.47;;;15.70;99.90;;;;;;5035700;28;20041;-64
2022/07/12 00:50:31;;;;;;;5.72;3.90;;;15.60;99.90;;;;;;5042934;28;20033;-63
2022/07/12 00:52:57;;;;;;;4.63;3.80;;;15.60;99.90;;;;;;5042771;28;20068;-63
2022/07/12 00:55:24;;;;;;;5.28;4.00;;;15.60;99.90;;;;;;5045689;28;20520;-63
2022/07/12 00:57:51;;;;;;;5.40;3.80;;;15.50;99.90;;;;;;5045634;28;20112;-64
2022/07/12 01:00:19;;;;;;;5.20;3.67;;;15.50;99.90;;;;;;5030232;28;20072;-64
2022/07/12 01:02:46;;;;;;;4.63;3.63;;;15.60;99.90;;;;;;5048192;28;20094;-63
2022/07/12 01:05:12;;;;;;;5.45;3.67;;;15.50;99.90;;;;;;5029619;28;20052;-64
2022/07/12 01:07:38;;;;;;;5.88;3.65;;;15.50;99.90;;;;;;5044991;28;20033;-63
2022/07/12 01:10:06;;;;;;;4.35;3.47;;;15.50;99.90;;;;;;5043861;28;20088;-63
2022/07/12 01:12:32;;;;;;;4.53;3.55;;;15.50;99.90;;;;;;5048222;28;20052;-65
2022/07/12 01:14:59;;;;;;;5.15;3.35;;;15.50;99.90;;;;;;5045789;28;20044;-63
2022/07/12 01:17:26;;;;;;;4.25;3.30;;;15.50;99.90;;;;;;5044613;28;20041;-64
2022/07/12 01:19:57;;;;;;;5.53;3.72;;;15.50;99.90;;;;;;5045995;28;20059;-64
2022/07/12 01:22:29;;;;;;;4.50;3.50;;;15.50;99.90;;;;;;5043969;28;20357;-65
2022/07/12 01:24:55;;;;;;;4.55;3.55;;;15.50;99.90;;;;;;5046849;28;20040;-64
2022/07/12 01:27:20;;;;;;;4.05;3.15;;;15.50;99.90;;;;;;5045108;28;20409;-64
2022/07/12 01:29:46;;;;;;;4.47;3.38;;;15.50;99.90;;;;;;5048151;28;20048;-63
2022/07/12 01:32:24;;;;;;;4.50;3.45;;;15.60;99.90;;;;;;5030487;28;20045;-64
2022/07/12 01:34:51;;;;;;;6.00;3.60;;;15.50;99.90;;;;;;5047522;28;20037;-63
2022/07/12 01:37:19;;;;;;;4.00;3.08;;;15.50;99.90;;;;;;5031052;28;20065;-64
2022/07/12 01:39:46;;;;;;;5.13;3.28;;;15.50;99.90;;;;;;5045301;28;20124;-64
2022/07/12 01:42:12;;;;;;;7.88;3.65;;;15.50;99.90;;;;;;5045222;28;20068;-64
2022/07/12 01:44:38;;;;;;;4.78;3.38;;;15.50;99.90;;;;;;5047886;28;20037;-64
2022/07/12 01:47:04;;;;;;;4.80;3.42;;;15.40;99.90;;;;;;5052431;28;20040;-64
2022/07/12 01:49:30;;;;;;;5.40;3.80;;;15.40;99.90;;;;;;5046922;28;20423;-63
2022/07/12 01:51:56;;;;;;;4.65;3.20;;;15.30;99.90;;;;;;5049251;28;20377;-64
2022/07/12 01:54:23;;;;;;;5.47;3.70;;;15.40;99.90;;;;;;5048516;28;20338;-63
2022/07/12 01:56:48;;;;;;;5.13;4.10;;;15.40;99.90;;;;;;5048867;28;20051;-63
2022/07/12 01:59:14;;;;;;;6.75;3.95;;;15.30;99.90;;;;;;5052259;28;20052;-64
2022/07/12 02:01:40;;;;;;;4.85;3.90;;;15.30;99.90;;;;;;5030756;28;20033;-64
2022/07/12 02:04:07;;;;;;;5.07;3.90;;;15.30;99.90;;;;;;5051413;28;20040;-63
2022/07/12 02:06:33;;;;;;;5.93;3.75;;;15.30;99.90;;;;;;5047797;28;20087;-63
2022/07/12 02:08:59;;;;;;;5.32;4.15;;;15.30;99.90;;;;;;5049120;28;20079;-63
2022/07/12 02:11:24;;;;;;;6.55;4.25;;;15.20;99.90;;;;;;5032969;28;20462;-63
2022/07/12 02:13:50;;;;;;;5.65;4.18;;;15.20;99.90;;;;;;5031720;28;20048;-63
2022/07/12 02:16:16;;;;;;;5.63;3.63;;;15.20;99.90;;;;;;5051498;28;20568;-63
2022/07/12 02:18:42;;;;;;;5.28;3.72;;;15.10;99.90;;;;;;5030783;28;20362;-63
2022/07/12 02:21:08;;;;;;;5.70;4.03;;;15.10;99.90;;;;;;5030757;28;20040;-63
2022/07/12 02:23:34;;;;;;;6.20;4.10;;;15.10;99.90;;;;;;5047707;28;20094;-64
2022/07/12 02:26:00;;;;;;;5.13;3.80;;;15.10;99.90;;;;;;5050636;28;20469;-64
2022/07/12 02:28:25;;;;;;;6.28;4.22;;;15.00;99.90;;;;;;5051362;28;20314;-63
2022/07/12 02:30:51;;;;;;;4.75;3.53;;;14.90;99.90;;;;;;5030358;28;21531;-63
2022/07/12 02:33:17;;;;;;;5.22;3.97;;;15.00;99.90;;;;;;5050862;28;20041;-63
2022/07/12 02:35:43;;;;;;;5.22;3.83;;;14.90;99.90;;;;;;5048475;28;20040;-63
2022/07/12 02:38:10;;;;;;;4.88;3.97;;;14.90;99.90;;;;;;5030330;28;20072;-63
2022/07/12 02:40:54;;;;;;;5.03;3.75;;;14.90;99.90;;;;;;5050971;28;20056;-64
2022/07/12 02:43:23;;;;;;;5.32;3.83;;;14.80;99.90;;;;;;5032322;28;20112;-63
2022/07/12 02:45:50;;;;;;;5.72;3.60;;;14.80;99.90;;;;;;5048822;28;20044;-63
2022/07/12 02:48:16;;;;;;;6.07;3.75;;;14.80;99.90;;;;;;5050183;28;20033;-63
2022/07/12 02:50:42;;;;;;;4.78;3.55;;;14.70;99.90;;;;;;5027377;28;20056;-63
2022/07/12 02:53:09;;;;;;;5.72;3.78;;;14.80;99.90;;;;;;5049540;28;20045;-64
2022/07/12 02:55:35;;;;;;;5.50;3.22;;;14.80;99.90;;;;;;5047704;28;20049;-63
2022/07/12 02:58:01;;;;;;;4.65;3.20;;;14.80;99.90;;;;;;5046774;28;20068;-63
2022/07/12 03:00:28;;;;;;;3.90;3.13;;;14.60;99.90;;;;;;5049908;28;20047;-63
2022/07/12 03:02:53;;;;;;;5.30;3.53;;;14.60;99.90;;;;;;5051074;28;20370;-64
2022/07/12 03:05:19;;;;;;;4.50;3.25;;;14.50;99.90;;;;;;5031857;28;20494;-63
2022/07/12 03:07:45;;;;;;;3.92;2.90;;;14.50;99.90;;;;;;5047062;28;20040;-64
2022/07/12 03:10:11;;;;;;;4.30;3.10;;;14.60;99.90;;;;;;5030828;28;20049;-63
2022/07/12 03:12:37;;;;;;;4.28;3.13;;;14.50;99.90;;;;;;5041089;28;20036;-64
2022/07/12 03:15:04;;;;;;;4.78;3.53;;;14.50;99.90;;;;;;5047519;28;20567;-63
2022/07/12 03:17:30;;;;;;;5.22;3.45;;;14.50;99.90;;;;;;5045280;28;20087;-63
2022/07/12 03:19:55;;;;;;;4.75;3.15;;;14.50;99.90;;;;;;5047383;28;20037;-64
2022/07/12 03:22:21;;;;;;;4.40;3.35;;;14.40;99.90;;;;;;5027184;28;20765;-63
2022/07/12 03:24:47;;;;;;;4.88;3.33;;;14.50;99.90;;;;;;5048492;28;20037;-63
2022/07/12 03:27:12;;;;;;;3.92;3.38;;;14.40;99.90;;;;;;5048138;28;20072;-63
2022/07/12 03:29:39;;;;;;;4.68;3.42;;;14.40;99.90;;;;;;5049147;28;20040;-64
2022/07/12 03:32:06;;;;;;;4.63;3.17;;;14.40;99.90;;;;;;5049470;28;20071;-64
2022/07/12 03:34:32;;;;;;;4.40;3.20;;;14.40;99.90;;;;;;5027245;28;20048;-64
2022/07/12 03:36:58;;;;;;;4.30;3.10;;;14.30;99.90;;;;;;5043762;28;20102;-64
2022/07/12 03:39:23;;;;;;;5.65;3.17;;;14.30;99.90;;;;;;5047490;28;20045;-64
2022/07/12 03:41:49;;;;;;;3.90;3.00;;;14.30;99.90;;;;;;5048323;28;20028;-63
2022/07/12 03:44:15;;;;;;;4.38;2.88;;;14.20;99.90;;;;;;5047277;28;20033;-64
2022/07/12 03:46:41;;;;;;;3.53;2.72;;;14.30;99.90;;;;;;5051197;28;20040;-63
2022/07/12 03:49:06;;;;;;;4.30;3.08;;;14.20;99.90;;;;;;5048862;28;20131;-64
2022/07/12 03:51:32;;;;;;;3.13;2.53;;;14.20;99.90;;;;;;5028777;28;20076;-63
2022/07/12 03:53:57;;;;;;;4.00;2.25;;;14.20;99.90;;;;;;5047679;28;20041;-63
2022/07/12 03:59:07;;;;;;;2.55;2.22;;;14.20;99.90;;;;;;5047588;28;20044;-63
2022/07/12 04:01:33;;;;;;;3.25;2.50;;;14.20;99.90;;;;;;5049525;28;20131;-63
2022/07/12 04:03:59;;;;;;;3.85;2.78;;;14.20;99.90;;;;;;5048848;28;20462;-63
2022/07/12 04:06:24;;;;;;;3.80;2.80;;;14.20;99.90;;;;;;5043450;28;20044;-63
2022/07/12 04:08:50;;;;;;;4.53;2.92;;;14.20;99.90;;;;;;5045516;28;20094;-63
2022/07/12 04:11:16;;;;;;;3.03;2.60;;;14.10;99.90;;;;;;5046218;28;20087;-62
2022/07/12 04:13:41;;;;;;;4.18;3.00;;;14.20;99.90;;;;;;5047394;28;20054;-63
2022/07/12 04:16:07;;;;;;;5.03;2.90;;;14.20;99.90;;;;;;5049481;28;20047;-63
2022/07/12 04:18:33;;;;;;;4.40;3.05;;;14.20;99.90;;;;;;5046361;28;20052;-63
2022/07/12 04:20:59;;;;;;;3.33;2.60;;;14.20;99.90;;;;;;5044653;28;20068;-63
2022/07/12 04:23:24;;;;;;;3.83;2.97;;;14.20;99.90;;;;;;5046049;28;20045;-63
2022/07/12 04:25:51;;;;;;;3.70;2.80;;;14.20;99.90;;;;;;5031933;28;20039;-62
2022/07/12 04:28:17;;;;;;;3.85;3.25;;;14.20;99.90;;;;;;5032518;28;20044;-62
2022/07/12 04:30:44;;;;;;;4.35;3.20;;;14.20;99.90;;;;;;5045748;28;20102;-63
2022/07/12 04:33:10;;;;;;;4.10;3.20;;;14.30;99.90;;;;;;5048510;28;20053;-63
2022/07/12 04:35:36;;;;;;;4.22;3.42;;;14.30;99.90;;;;;;5033224;28;20045;-63
2022/07/12 04:38:03;;;;;;;5.00;3.47;;;14.20;99.90;;;;;;5045867;28;20056;-63
2022/07/12 04:40:28;;;;;;;4.28;3.50;;;14.30;99.90;;;;;;5051167;28;20450;-63
2022/07/12 04:42:54;;;;;;;4.90;3.75;;;14.30;99.90;;;;;;5026679;28;20068;-63
2022/07/12 04:45:20;;;;;;;3.67;3.13;;;14.30;99.90;;;;;;5030193;28;20348;-63
2022/07/12 04:47:45;;;;;;;4.47;3.50;;;14.40;99.90;;;;;;5022695;28;20029;-62
2022/07/12 04:50:11;;;;;;;5.18;3.67;;;14.40;99.90;;;;;;5043776;28;20049;-62
2022/07/12 04:52:37;;;;;;;4.80;3.92;;;14.40;99.90;;;;;;5042046;28;20084;-63
2022/07/12 04:55:03;;;;;;;4.97;3.92;;;14.50;99.90;;;;;;5045138;28;20075;-64
2022/07/12 04:57:29;;;;;;;5.15;4.00;;;14.60;99.90;;;;;;5040143;28;20034;-63
2022/07/12 04:59:55;;;;;;;5.88;4.28;;;14.80;99.90;;;;;;5045627;28;20389;-63
2022/07/12 05:02:20;;;;;;;5.30;4.13;;;15.70;99.90;;;;;;5022554;28;20025;-62
2022/07/12 05:04:46;;;;;;;6.47;4.30;;;16.70;99.90;;;;;;5034146;28;20034;-63
2022/07/12 05:07:11;;;;;;;4.72;3.75;;;17.70;99.90;;;;;;5037068;28;20041;-62
2022/07/12 05:09:37;;;;;;;4.20;3.63;;;18.60;99.90;;;;;;5043343;28;20512;-63
2022/07/12 05:12:03;;;;;;;4.22;3.60;;;19.40;99.90;;;;;;5043216;28;20051;-62
2022/07/12 05:14:29;;;;;;;4.22;3.20;;;20.10;99.90;;;;;;5027112;28;20155;-62
2022/07/12 05:16:54;;;;;;;4.07;3.17;;;20.80;99.90;;;;;;5021427;28;20131;-62
2022/07/12 05:19:21;;;;;;;3.75;3.30;;;21.40;99.90;;;;;;5037697;28;20124;-63
2022/07/12 05:21:47;;;;;;;4.35;3.13;;;22.00;99.90;;;;;;5050264;28;20033;-62
2022/07/12 05:24:13;;;;;;;3.72;2.70;;;22.50;99.90;;;;;;5053436;28;20043;-62
2022/07/12 05:26:38;;;;;;;5.28;3.50;;;22.90;99.90;;;;;;5048156;28;20083;-62
2022/07/12 05:29:04;;;;;;;4.00;3.38;;;23.00;99.90;;;;;;5052609;28;20072;-62
2022/07/12 05:31:31;;;;;;;4.70;3.60;;;22.90;99.90;;;;;;5052185;28;20033;-62
2022/07/12 05:33:56;;;;;;;5.72;4.15;;;22.50;99.90;;;;;;5048982;28;20095;-61
2022/07/12 05:36:22;;;;;;;7.00;4.32;;;21.90;99.90;;;;;;5048510;28;20646;-62
2022/07/12 05:38:48;;;;;;;5.53;3.90;;;21.30;99.90;;;;;;5035865;28;20107;-62
2022/07/12 05:41:13;;;;;;;6.10;4.63;;;20.80;99.90;;;;;;5047281;28;20041;-62
2022/07/12 05:43:39;;;;;;;7.45;4.82;;;20.50;99.90;;;;;;5048733;28;20709;-62
2022/07/12 05:46:05;;;;;;;7.43;4.72;;;20.20;99.90;;;;;;5045915;28;20305;-62
2022/07/12 05:48:31;;;;;;;7.28;4.90;;;19.90;99.90;;;;;;5031201;28;20458;-61
2022/07/12 05:53:21;;;;;;;5.47;3.83;;;19.80;99.90;;;;;;5029805;28;20071;-62
2022/07/12 05:53:46;;;;;;;5.53;4.00;;;19.70;99.90;;;;;;5042436;28;20037;-61
2022/07/12 05:56:12;;;;;;;5.25;3.58;;;19.60;99.90;;;;;;5050811;28;20056;-62
2022/07/12 05:58:37;;;;;;;5.15;3.75;;;19.50;99.90;;;;;;5049927;28;20029;-62
2022/07/12 06:01:03;;;;;;;4.78;3.90;;;19.40;99.90;;;;;;5050099;28;20577;-62
2022/07/12 06:03:34;;;;;;;4.75;3.50;;;19.40;99.90;;;;;;5050878;28;20037;-62
2022/07/12 06:06:00;;;;;;;4.53;3.58;;;19.40;99.90;;;;;;5037274;28;20044;-62
2022/07/12 06:08:31;;;;;;;5.13;3.72;;;19.60;99.90;;;;;;5037801;28;20041;-63
2022/07/12 06:11:00;;;;;;;4.60;3.70;;;19.70;99.90;;;;;;5038964;28;20072;-63
2022/07/12 06:13:25;;;;;;;5.70;3.80;;;19.80;99.90;;;;;;5038744;28;20033;-63
2022/07/12 06:15:51;;;;;;;4.85;3.75;;;20.10;99.90;;;;;;5039089;28;20049;-64
2022/07/12 06:18:17;;;;;;;5.18;3.55;;;20.30;99.90;;;;;;5023885;28;20127;-62
2022/07/12 06:20:43;;;;;;;5.28;3.95;;;20.70;99.90;;;;;;5048778;28;20033;-62
2022/07/12 06:23:09;;;;;;;4.40;3.42;;;21.00;99.90;;;;;;5051304;28;20378;-63
2022/07/12 06:25:35;;;;;;;4.43;3.53;;;21.30;99.90;;;;;;5048308;28;20335;-63
2022/07/12 06:28:02;;;;;;;5.22;3.70;;;21.40;99.90;;;;;;5052968;28;20462;-63
2022/07/12 06:30:27;;;;;;;4.57;3.50;;;21.40;99.90;;;;;;5032316;28;20075;-63
2022/07/12 06:32:53;;;;;;;4.22;3.50;;;21.50;99.90;;;;;;5045941;28;20083;-63
2022/07/12 06:35:19;;;;;;;5.30;3.72;;;21.80;99.90;;;;;;5030481;28;20119;-62
2022/07/12 06:37:44;;;;;;;3.85;3.45;;;21.90;99.90;;;;;;5047557;28;20072;-63
2022/07/12 06:40:10;;;;;;;4.03;3.63;;;22.10;99.90;;;;;;5050738;28;20454;-63
2022/07/12 06:42:36;;;;;;;3.85;3.05;;;22.50;99.90;;;;;;5048172;28;20041;-63
2022/07/12 06:45:03;;;;;;;4.00;3.60;;;23.00;99.90;;;;;;5047817;28;20045;-62
2022/07/12 06:47:28;;;;;;;4.50;3.63;;;23.50;99.90;;;;;;5047013;28;20030;-63
2022/07/12 06:49:54;;;;;;;5.18;3.10;;;24.20;99.90;;;;;;5033585;28;20059;-63
2022/07/12 06:52:20;;;;;;;5.32;3.40;;;25.00;99.90;;;;;;5030882;28;20037;-62
2022/07/12 06:54:46;;;;;;;4.45;3.20;;;25.70;99.90;;;;;;5045122;28;20052;-63
2022/07/12 06:57:11;;;;;;;3.92;3.13;;;26.10;99.90;;;;;;5047657;28;20322;-63
2022/07/12 06:59:37;;;;;;;3.50;3.13;;;26.10;99.90;;;;;;5047718;28;20029;-63
2022/07/12 07:02:04;;;;;;;4.50;3.15;;;26.00;99.90;;;;;;5034490;28;20450;-61
2022/07/12 07:04:30;;;;;;;4.03;3.38;;;25.90;99.90;;;;;;5050040;28;20077;-62
2022/07/12 07:06:55;;;;;;;3.58;3.22;;;25.40;99.90;;;;;;5031259;28;20413;-63
2022/07/12 07:09:21;;;;;;;4.07;3.35;;;25.00;99.90;;;;;;5049928;28;20051;-62
2022/07/12 07:11:46;;;;;;;5.40;3.20;;;24.60;99.90;;;;;;5046153;28;20061;-62
2022/07/12 07:14:12;;;;;;;7.35;3.55;;;24.40;99.90;;;;;;5048474;28;20037;-62
2022/07/12 07:16:38;;;;;;;4.35;3.88;;;24.10;99.90;;;;;;5051178;28;20430;-62
2022/07/12 07:19:05;;;;;;;3.75;3.35;;;23.90;99.90;;;;;;5047500;28;20060;-61
2022/07/12 07:21:31;;;;;;;3.78;3.30;;;23.70;99.90;;;;;;5047494;28;20110;-62
2022/07/12 07:23:57;;;;;;;6.60;3.50;;;23.50;99.90;;;;;;5045334;28;20474;-62
2022/07/12 07:26:23;;;;;;;4.43;3.50;;;23.40;99.90;;;;;;5050425;28;20076;-63
2022/07/12 07:31:41;;;;;;;4.47;3.65;;;23.40;99.90;;;;;;5017808;28;20053;-63
2022/07/12 07:34:07;;;;;;;5.10;3.60;;;23.50;99.90;;;;;;5047839;28;20040;-63
2022/07/12 07:36:32;;;;;;;3.83;3.17;;;23.70;99.90;;;;;;5051133;28;20037;-63
2022/07/12 07:38:58;;;;;;;4.75;3.60;;;23.80;99.90;;;;;;5047073;28;20041;-63
2022/07/12 07:41:24;;;;;;;4.28;3.63;;;24.10;99.90;;;;;;5030119;28;20047;-62
2022/07/12 07:43:50;;;;;;;5.68;3.70;;;24.30;99.90;;;;;;5048637;28;20033;-62
2022/07/12 07:46:16;;;;;;;4.15;3.50;;;24.50;99.90;;;;;;5053190;28;20215;-63
2022/07/12 07:48:42;;;;;;;5.35;3.30;;;24.80;99.90;;;;;;5046903;28;20033;-63
2022/07/12 07:51:07;;;;;;;6.22;3.63;;;24.80;99.90;;;;;;5044613;28;20075;-63
2022/07/12 07:53:33;;;;;;;5.30;3.47;;;24.80;99.90;;;;;;5030883;28;20329;-63
2022/07/12 07:56:00;;;;;;;3.88;3.13;;;24.80;99.90;;;;;;5047151;28;20128;-63
2022/07/12 07:58:25;;;;;;;4.10;3.33;;;25.00;99.90;;;;;;5046502;28;20058;-63
2022/07/12 08:00:52;;;;;;;3.95;3.13;;;25.10;99.90;;;;;;5045730;28;20043;-63
2022/07/12 08:03:19;;;;;;;6.05;3.50;;;25.10;99.90;;;;;;5047575;28;20033;-62
2022/07/12 08:05:44;;;;;;;3.70;3.05;;;25.00;99.90;;;;;;5047023;28;20037;-63
2022/07/12 08:08:10;;;;;;;3.58;3.28;;;25.00;99.90;;;;;;5046922;28;20501;-63
2022/07/12 08:10:36;;;;;;;4.15;3.35;;;25.00;99.90;;;;;;5045752;28;20488;-63
2022/07/12 08:13:02;;;;;;;3.38;3.05;;;25.00;99.90;;;;;;5045874;28;20033;-63
2022/07/12 08:15:27;;;;;;;3.83;3.08;;;25.00;99.90;;;;;;5046445;28;20033;-62
2022/07/12 08:17:53;;;;;;;3.10;2.80;;;25.10;99.90;;;;;;5030519;28;20068;-63
2022/07/12 08:20:19;;;;;;;3.17;2.88;;;25.00;99.90;;;;;;5043548;28;20098;-63
2022/07/12 08:22:46;;;;;;;2.72;2.42;;;25.00;99.90;;;;;;5045865;28;20347;-63
2022/07/12 08:25:12;;;;;;;3.85;3.05;;;24.90;99.90;;;;;;5029753;28;20049;-63
2022/07/12 08:27:38;;;;;;;5.65;3.42;;;24.80;99.90;;;;;;5048463;28;20031;-63
2022/07/12 08:30:04;;;;;;;4.32;3.60;;;24.60;99.90;;;;;;5047034;28;20041;-62
2022/07/12 08:32:30;;;;;;;4.60;3.45;;;24.60;99.90;;;;;;5025802;28;20099;-62
2022/07/12 08:34:56;;;;;;;5.57;3.20;;;24.50;99.90;;;;;;5045853;28;20462;-62
2022/07/12 08:37:22;;;;;;;4.60;3.55;;;24.50;99.90;;;;;;5047620;28;20123;-62
2022/07/12 08:39:48;;;;;;;5.28;3.45;;;24.50;99.90;;;;;;5049841;28;20036;-62
2022/07/12 08:42:18;;;;;;;3.97;3.58;;;24.50;99.90;;;;;;5052442;28;20339;-62
2022/07/12 08:44:44;;;;;;;5.30;3.97;;;24.50;99.90;;;;;;5047228;28;20052;-62
2022/07/12 08:47:11;;;;;;;6.10;3.85;;;24.50;99.90;;;;;;5047409;28;20033;-63
2022/07/12 08:49:37;;;;;;;4.82;4.13;;;24.60;99.90;;;;;;5044611;28;20366;-62
2022/07/12 08:52:25;;;;;;;6.97;4.22;;;24.60;99.90;;;;;;5047924;28;20045;-61
2022/07/12 08:54:51;;;;;;;4.97;4.10;;;24.80;99.90;;;;;;5041290;28;20049;-63
2022/07/12 08:57:30;;;;;;;3.85;3.20;;;24.90;99.90;;;;;;5044239;28;20366;-62
2022/07/12 09:00:00;;;;;;;3.60;3.10;;;25.00;99.90;;;;;;5047843;28;20124;-62
2022/07/12 09:02:26;;;;;;;4.40;3.63;;;25.10;99.90;;;;;;5045712;28;20043;-62
2022/07/12 09:05:08;;;;;;;4.20;3.47;;;25.20;99.90;;;;;;5047092;28;20049;-63
2022/07/12 09:07:36;;;;;;;4.30;3.90;;;25.30;99.90;;;;;;5046367;28;20458;-62
2022/07/12 09:10:06;;;;;;;4.53;3.58;;;25.20;99.90;;;;;;5044796;28;20053;-62
2022/07/12 09:12:34;;;;;;;4.07;3.53;;;25.40;99.90;;;;;;5025940;28;20492;-62
2022/07/12 09:15:20;;;;;;;4.45;3.60;;;25.40;99.90;;;;;;5029164;28;20480;-62
2022/07/12 09:17:56;;;;;;;4.55;3.70;;;25.50;99.90;;;;;;5046250;28;20037;-62
2022/07/12 09:20:24;;;;;;;5.07;4.55;;;25.60;99.90;;;;;;5042929;28;20051;-62
2022/07/12 09:22:58;;;;;;;5.40;3.60;;;25.60;99.90;;;;;;5046301;28;20102;-62
2022/07/12 09:25:25;;;;;;;4.57;3.80;;;25.60;99.90;;;;;;5047947;28;20045;-63
2022/07/12 09:27:54;;;;;;;4.60;4.00;;;25.80;99.90;;;;;;5048488;28;20037;-62
2022/07/12 09:30:23;;;;;;;5.07;3.53;;;25.90;99.90;;;;;;5045064;28;20082;-62
2022/07/12 09:36:07;;;;;;;5.28;3.35;;;25.70;99.90;;;;;;5044666;28;20135;-62
2022/07/12 09:38:56;;;;;;;4.43;3.45;;;25.60;99.90;;;;;;5048491;28;20454;-62
2022/07/12 09:41:22;;;;;;;5.13;3.25;;;25.50;99.90;;;;;;5044078;28;20700;-62
2022/07/12 09:43:49;;;;;;;4.03;3.17;;;25.60;99.90;;;;;;5028930;28;20382;-62
2022/07/12 09:46:16;;;;;;;5.32;3.13;;;25.90;99.90;;;;;;5047764;28;20036;-63
2022/07/12 09:48:44;;;;;;;4.15;3.00;;;26.10;99.90;;;;;;5044362;28;20133;-62
2022/07/12 09:51:13;;;;;;;3.90;3.40;;;26.30;99.90;;;;;;5045237;28;20115;-62
2022/07/12 09:53:43;;;;;;;3.85;2.90;;;26.50;99.90;;;;;;5045257;28;20508;-62
2022/07/12 09:56:12;;;;;;;4.85;2.65;;;26.60;99.90;;;;;;5045580;28;20107;-61
2022/07/12 09:58:51;;;;;;;3.70;2.78;;;26.60;99.90;;;;;;5032917;28;20037;-62
2022/07/12 10:01:18;;;;;;;4.00;3.35;;;26.70;99.90;;;;;;5046053;28;20040;-62
2022/07/12 10:03:44;;;;;;;3.35;2.80;;;26.50;99.90;;;;;;5047609;28;20044;-63
2022/07/12 10:06:12;;;;;;;4.35;2.80;;;26.50;99.90;;;;;;5046929;28;20049;-63
2022/07/12 10:08:38;;;;;;;3.45;2.47;;;26.50;99.90;;;;;;5045440;28;20125;-63
2022/07/12 10:11:05;;;;;;;3.50;2.10;;;26.50;99.90;;;;;;5048961;28;20535;-62
2022/07/12 10:13:31;;;;;;;3.55;2.80;;;26.40;99.90;;;;;;5049696;28;20048;-63
2022/07/12 10:16:00;;;;;;;3.65;1.70;;;26.40;99.90;;;;;;5047096;28;20068;-62
2022/07/12 10:18:26;;;;;;;2.85;1.88;;;26.30;99.90;;;;;;5052932;28;20304;-62
2022/07/12 10:20:52;;;;;;;2.60;1.95;;;26.50;99.90;;;;;;5046776;28;21655;-63
2022/07/12 10:23:30;;;;;;;2.83;2.53;;;26.50;99.90;;;;;;5047756;28;20474;-62
2022/07/12 10:25:56;;;;;;;2.15;1.95;;;26.40;99.90;;;;;;5050762;28;20044;-62
2022/07/12 10:28:22;;;;;;;2.63;2.00;;;26.40;99.90;;;;;;5065451;28;20033;-61
2022/07/12 10:30:49;;;;;;;2.42;2.10;;;26.60;99.90;;;;;;5038712;28;20098;-61
2022/07/12 10:33:22;;;;;;;2.45;2.10;;;26.60;99.90;;;;;;5037351;28;20063;-61
2022/07/12 10:36:08;;;;;;;3.78;2.42;;;26.80;99.90;;;;;;5036502;28;20033;-61
2022/07/12 10:38:34;;;;;;;2.40;1.88;;;26.90;99.90;;;;;;5036155;28;20043;-61
2022/07/12 10:41:22;;;;;;;1.77;1.58;;;27.00;99.90;;;;;;5036326;28;20033;-61
2022/07/12 10:44:07;;;;;;;2.50;2.30;;;27.10;99.90;;;;;;5036180;28;20037;-61
2022/07/12 10:46:37;;;;;;;4.63;2.50;;;27.00;99.90;;;;;;5038419;28;20047;-62
2022/07/12 10:49:28;;;;;;;2.70;2.30;;;27.00;99.90;;;;;;5039913;28;20490;-61
2022/07/12 10:52:11;;;;;;;4.00;2.35;;;27.10;99.90;;;;;;5036611;28;20068;-61
2022/07/12 10:54:41;;;;;;;2.72;1.88;;;27.20;99.90;;;;;;5039668;28;20389;-60
2022/07/12 10:57:07;;;;;;;3.38;2.20;;;27.20;99.90;;;;;;5057745;28;20093;-62
2022/07/12 10:59:36;;;;;;;3.60;1.98;;;27.10;99.90;;;;;;5046113;28;20458;-62
2022/07/12 11:02:04;;;;;;;4.22;1.88;;;26.90;99.90;;;;;;5060660;28;20468;-62
2022/07/12 11:04:31;;;;;;;3.70;1.75;;;26.90;99.90;;;;;;5036398;28;20334;-62
2022/07/12 11:07:02;;;;;;;2.45;2.25;;;26.90;99.90;;;;;;5051409;28;20125;-62
2022/07/12 11:09:28;;;;;;;3.38;2.40;;;27.00;99.90;;;;;;5047354;28;20040;-62
2022/07/12 11:11:54;;;;;;;3.63;2.00;;;27.00;99.90;;;;;;5049121;28;20366;-62
2022/07/12 11:14:29;;;;;;;3.33;2.03;;;27.00;99.90;;;;;;5048978;28;20453;-62
2022/07/12 11:16:56;;;;;;;5.57;2.47;;;27.30;99.90;;;;;;5048544;28;20048;-62
2022/07/12 11:19:27;;;;;;;2.58;2.10;;;27.40;99.90;;;;;;5046435;28;20049;-63
2022/07/12 11:21:58;;;;;;;4.05;2.35;;;27.40;99.90;;;;;;5049583;28;20047;-63
2022/07/12 11:24:26;;;;;;;3.72;2.38;;;27.30;99.90;;;;;;5035447;28;20052;-63
2022/07/12 11:26:52;;;;;;;3.72;2.97;;;27.30;99.90;;;;;;5039589;28;21174;-63
2022/07/12 11:29:18;;;;;;;4.40;3.05;;;27.60;99.90;;;;;;5035027;28;20069;-64
2022/07/12 11:31:45;;;;;;;3.72;2.20;;;27.50;99.90;;;;;;5034954;28;20034;-62
2022/07/12 11:34:25;;;;;;;4.60;2.50;;;27.70;99.90;;;;;;5035697;28;20512;-63
2022/07/12 11:36:58;;;;;;;2.30;2.03;;;27.80;99.90;;;;;;5033039;28;20115;-63
2022/07/12 11:39:32;;;;;;;;;;;27.90;99.90;;;;;;5032035;28;20462;-63
2022/07/12 11:41:59;;;;;;;4.32;2.30;;;28.10;99.90;;;;;;5036125;28;20019;-63
2022/07/12 11:44:51;;;;;;;3.90;1.90;;;28.30;99.90;;;;;;5036822;28;20037;-62
2022/07/12 11:47:19;;;;;;;5.63;2.05;;;28.30;99.80;;;;;;5042418;28;20056;-63
2022/07/12 11:49:46;;;;;;;1.60;1.50;;;28.20;99.80;;;;;;5033099;28;20045;-63
2022/07/12 11:52:17;;;;;;;2.17;1.80;;;28.00;99.90;;;;;;5033659;28;20484;-63
2022/07/12 11:54:44;;;;;;;2.40;1.60;;;27.70;99.90;;;;;;5031306;28;20042;-62
2022/07/12 11:57:10;;;;;;;4.25;2.03;;;27.60;99.90;;;;;;5034804;28;20046;-63
2022/07/12 11:59:36;;;;;;;1.75;1.58;;;27.60;99.90;;;;;;5036801;28;20038;-62
2022/07/12 12:02:06;;;;;;;2.38;1.70;;;27.60;99.90;;;;;;5036344;28;20110;-63
2022/07/12 12:04:43;;;;;;;2.22;1.60;;;27.40;99.90;;;;;;5037722;28;20130;-63
2022/07/12 12:07:08;;;;;;;3.08;1.80;;;27.30;99.90;;;;;;5037130;28;20178;-63
2022/07/12 12:09:57;;;;;;;1.75;1.55;;;27.20;99.90;;;;;;5031902;28;20076;-63
2022/07/12 12:12:23;;;;;;;1.70;1.60;;;27.30;99.90;;;;;;5035493;28;20165;-62
2022/07/12 12:14:48;;;;;;;2.47;1.50;;;27.40;99.90;;;;;;5036693;28;20498;-63
2022/07/12 12:17:14;;;;;;;2.60;1.50;;;27.50;99.90;;;;;;5032911;28;20037;-62
2022/07/12 12:19:43;;;;;;;4.22;1.50;;;27.50;99.90;;;;;;5016969;28;20044;-62
2022/07/12 12:22:49;;;;;;;2.13;1.38;;;27.60;99.90;;;;;;5035960;28;20048;-61
2022/07/12 12:25:15;;;;;;;3.70;1.58;;;27.90;99.90;;;;;;4980038;28;20129;-63
2022/07/12 12:27:48;;;;;;;3.00;1.30;;;28.00;99.70;;;;;;4977026;28;20491;-63
2022/07/12 12:30:16;;;;;;;1.40;1.30;;;28.00;99.60;;;;;;5010877;28;20459;-63
2022/07/12 12:32:53;;;;;;;1.25;1.15;;;28.20;99.30;;;;;;5013956;28;20270;-63
2022/07/12 12:35:22;;;;;;;3.63;1.25;;;28.20;99.50;;;;;;5034523;28;20044;-62
2022/07/12 12:37:53;;;;;;;2.20;1.10;;;28.10;98.50;;;;;;5034713;28;20462;-63
2022/07/12 12:40:30;;;;;;;1.25;1.15;;;28.10;98.30;;;;;;5035486;28;20471;-62
2022/07/12 12:43:13;;;;;;;1.10;1.00;;;28.20;98.50;;;;;;5033679;28;20032;-63
2022/07/12 12:45:55;;;;;;;1.17;0.90;;;28.30;98.00;;;;;;5033854;28;20132;-62
2022/07/12 12:48:26;;;;;;;2.20;1.00;;;28.30;97.80;;;;;;5032173;28;20040;-63
2022/07/12 12:50:53;;;;;;;2.42;1.52;;;28.30;97.30;;;;;;5035130;28;20033;-63
2022/07/12 12:53:23;;;;;;;3.47;0.98;;;28.30;97.40;;;;;;5034285;28;20048;-62
2022/07/12 12:55:54;;;;;;;1.00;0.90;;;28.40;97.10;;;;;;5036849;28;20060;-62
2022/07/12 12:58:21;;;;;;;1.55;1.00;;;28.50;97.60;;;;;;5035176;28;20082;-62
2022/07/12 13:00:49;;;;;;;1.27;1.00;;;28.40;97.40;;;;;;5021666;28;20409;-63